Terminal Aerodrome Forecast
Issued by NWS Billings, MT

Home | Current Version | Previous Version | Text Only | Print | Product List | Glossary On
Versions: 1 2 3 4 5 6 7 8 9 10 11 12 13 14 15 16 17 18 19 20 21 22 23 24 25 26 27 28
000
FTUS45 KBYZ 270522
TAFMLS
TAF
KMLS 270522Z 2706/2806 15006KT P6SM SCT070 BKN090
     FM271000 26007KT P6SM BKN120 WS009/32031KT
     FM271700 20012G22KT P6SM FEW080 BKN120
     FM280000 30010KT P6SM FEW120=

USA.gov is the U.S. government's official web portal to all federal, state and local government web resources and services.